Time;durP1;ratioP1;P1;durP2;ratioP2;P2;SDS_P1;SDS_P2;PMS_P1;PMS_P2;Temp;Humidity;BMP_temperature;BMP_pressure;BME280_temperature;BME280_humidity;BME280_pressure;Samples;Min_cycle;Max_cycle;Signal;HPM_P1;HPM_P2
2022/11/09 00:00:49;;;;;;;5.53;4.13;;;6.50;99.90;;;;;;7594340;19;20026;-73
2022/11/09 00:03:21;;;;;;;6.57;4.07;;;6.40;99.90;;;;;;7600233;19;20015;-72
2022/11/09 00:05:55;;;;;;;5.93;4.28;;;6.40;99.90;;;;;;7615769;19;20018;-73
2022/11/09 00:08:27;;;;;;;;;;;6.40;99.90;;;;;;7615275;19;20494;-73
2022/11/09 00:11:05;;;;;;;7.28;3.22;;;6.40;99.90;;;;;;7585597;19;19927;-72
2022/11/09 00:13:39;;;;;;;6.47;3.67;;;6.30;99.90;;;;;;7611244;19;20034;-73
2022/11/09 00:16:14;;;;;;;6.50;3.88;;;6.30;99.90;;;;;;7577843;19;20002;-72
2022/11/09 00:18:47;;;;;;;10.35;3.75;;;6.20;99.90;;;;;;7591750;19;20042;-72
2022/11/09 00:21:24;;;;;;;6.47;3.95;;;6.30;99.90;;;;;;7591446;19;21933;-72
2022/11/09 00:23:56;;;;;;;7.30;3.95;;;6.20;99.90;;;;;;7595694;19;20014;-73
2022/11/09 00:26:28;;;;;;;5.53;3.28;;;6.40;99.90;;;;;;7602091;19;20006;-73
2022/11/09 00:29:00;;;;;;;9.63;4.57;;;6.40;99.90;;;;;;7599817;19;20089;-73
2022/11/09 00:31:32;;;;;;;6.38;4.15;;;6.40;99.90;;;;;;7599087;19;20015;-73
2022/11/09 00:34:04;;;;;;;11.35;4.20;;;6.30;99.90;;;;;;7616271;19;20015;-73
2022/11/09 00:36:38;;;;;;;10.52;4.10;;;6.20;99.90;;;;;;7615791;19;20115;-73
2022/11/09 00:39:12;;;;;;;8.45;4.65;;;6.10;99.90;;;;;;7598750;19;20022;-73
2022/11/09 00:41:44;;;;;;;7.50;4.30;;;6.00;99.90;;;;;;7593946;19;20484;-73
2022/11/09 00:44:16;;;;;;;10.05;4.30;;;6.00;99.90;;;;;;7599486;19;20632;-73
2022/11/09 00:46:48;;;;;;;7.10;3.90;;;6.00;99.90;;;;;;7595723;19;20019;-73
2022/11/09 00:49:21;;;;;;;6.43;3.92;;;6.10;99.90;;;;;;7592502;19;20019;-74
2022/11/09 00:51:54;;;;;;;8.25;3.80;;;6.10;99.90;;;;;;7590249;19;21627;-73
2022/11/09 00:54:26;;;;;;;6.38;3.75;;;6.00;99.90;;;;;;7592683;19;20144;-72
2022/11/09 00:56:58;;;;;;;5.80;3.65;;;6.00;99.90;;;;;;7605951;19;20118;-72
2022/11/09 00:59:31;;;;;;;6.05;3.88;;;5.90;99.90;;;;;;7578304;19;20010;-72
2022/11/09 01:02:03;;;;;;;6.55;3.88;;;5.90;99.90;;;;;;7596125;19;20094;-73
2022/11/09 01:04:38;;;;;;;5.70;3.72;;;5.90;99.90;;;;;;7585225;19;20014;-73
2022/11/09 01:07:10;;;;;;;6.85;3.80;;;5.90;99.90;;;;;;7604080;19;20074;-73
2022/11/09 01:09:42;;;;;;;9.00;4.45;;;5.90;99.90;;;;;;7583183;19;20018;-73
2022/11/09 01:12:14;;;;;;;5.85;3.40;;;5.90;99.90;;;;;;7578941;19;20014;-73
2022/11/09 01:14:46;;;;;;;7.32;3.47;;;6.00;99.90;;;;;;7601408;19;20034;-72
2022/11/09 01:17:18;;;;;;;7.22;3.85;;;6.00;99.90;;;;;;7599417;19;20017;-73
2022/11/09 01:19:51;;;;;;;6.60;3.60;;;6.10;99.90;;;;;;7585264;19;20027;-73
2022/11/09 01:22:26;;;;;;;6.45;3.88;;;6.10;99.90;;;;;;7587033;19;20764;-73
2022/11/09 01:24:58;;;;;;;6.95;3.72;;;6.20;99.90;;;;;;7584125;19;20057;-73
2022/11/09 01:27:32;;;;;;;5.75;3.20;;;6.20;99.90;;;;;;7597929;19;20848;-72
2022/11/09 01:30:04;;;;;;;5.13;3.17;;;6.10;99.90;;;;;;7584622;19;20010;-73
2022/11/09 01:32:36;;;;;;;6.00;3.05;;;6.00;99.90;;;;;;7582767;19;20927;-73
2022/11/09 01:35:09;;;;;;;5.18;3.67;;;6.10;99.90;;;;;;7600034;19;20022;-73
2022/11/09 01:37:41;;;;;;;4.88;3.15;;;6.10;99.90;;;;;;7595292;19;20026;-73
2022/11/09 01:40:14;;;;;;;6.63;3.42;;;6.00;99.90;;;;;;7577495;19;20015;-73
2022/11/09 01:42:46;;;;;;;4.85;3.17;;;5.90;99.90;;;;;;7587630;19;21471;-73
2022/11/09 01:45:24;;;;;;;4.70;3.25;;;6.00;99.90;;;;;;7589636;19;20018;-72
2022/11/09 01:48:10;;;;;;;6.03;3.10;;;5.90;99.90;;;;;;7596751;19;20026;-73
2022/11/09 01:50:44;;;;;;;4.40;2.28;;;5.80;99.90;;;;;;7586157;19;20002;-73
2022/11/09 01:53:21;;;;;;;6.28;2.80;;;6.00;99.90;;;;;;7582329;19;20023;-73
2022/11/09 01:55:56;;;;;;;4.63;3.10;;;6.00;99.90;;;;;;7599005;19;20038;-72
2022/11/09 01:58:44;;;;;;;5.40;2.58;;;6.00;99.90;;;;;;7587973;19;20364;-73
2022/11/09 02:01:17;;;;;;;5.20;2.78;;;6.00;99.90;;;;;;7589017;19;20014;-72
2022/11/09 02:04:15;;;;;;;6.68;2.97;;;5.90;99.90;;;;;;7585445;19;20112;-73
2022/11/09 02:06:49;;;;;;;4.18;2.65;;;5.80;99.90;;;;;;7592964;19;20491;-73
2022/11/09 02:09:49;;;;;;;6.22;2.90;;;6.00;99.90;;;;;;7572639;19;20010;-73
2022/11/09 02:12:24;;;;;;;4.40;2.47;;;6.10;99.90;;;;;;7572985;19;20026;-73
2022/11/09 02:14:58;;;;;;;5.00;2.65;;;6.10;99.90;;;;;;7591466;19;20064;-73
2022/11/09 02:17:32;;;;;;;4.93;2.60;;;6.10;99.90;;;;;;7595747;19;20018;-72
2022/11/09 02:20:12;;;;;;;5.47;2.25;;;6.10;99.90;;;;;;7582258;19;20013;-72
2022/11/09 02:22:45;;;;;;;3.45;2.28;;;6.20;99.90;;;;;;7591991;19;20021;-73
2022/11/09 02:25:17;;;;;;;3.78;2.50;;;6.20;99.90;;;;;;7599511;19;20018;-73
2022/11/09 02:27:50;;;;;;;3.78;2.28;;;6.30;99.90;;;;;;7589642;19;20015;-73
2022/11/09 02:30:23;;;;;;;3.45;2.22;;;6.30;99.90;;;;;;7597153;19;20036;-73
2022/11/09 02:32:57;;;;;;;3.22;2.17;;;6.20;99.90;;;;;;7601711;19;20015;-74
2022/11/09 02:35:29;;;;;;;5.25;1.98;;;6.20;99.90;;;;;;7598813;19;20506;-74
2022/11/09 02:38:01;;;;;;;2.95;2.30;;;6.20;99.90;;;;;;7587197;19;20022;-73
2022/11/09 02:40:37;;;;;;;4.45;2.70;;;6.00;99.90;;;;;;7596331;19;20018;-73
2022/11/09 02:43:11;;;;;;;5.10;2.08;;;6.10;99.90;;;;;;7589283;19;20469;-73
2022/11/09 02:45:43;;;;;;;;;;;6.10;99.90;;;;;;7589390;19;20018;-74
2022/11/09 02:48:15;;;;;;;3.28;1.92;;;6.10;99.90;;;;;;7583952;19;19918;-74
2022/11/09 02:50:47;;;;;;;3.63;2.00;;;6.20;99.90;;;;;;7585014;19;20019;-73
2022/11/09 02:53:19;;;;;;;2.92;1.80;;;6.10;99.90;;;;;;7593433;19;20527;-73
2022/11/09 02:55:51;;;;;;;3.60;1.90;;;6.20;99.90;;;;;;7591899;19;20025;-73
2022/11/09 02:58:24;;;;;;;4.90;2.33;;;6.20;99.90;;;;;;7579276;19;20028;-73
2022/11/09 03:00:56;;;;;;;2.65;1.55;;;6.10;99.90;;;;;;7583023;19;20026;-72
2022/11/09 03:03:30;;;;;;;2.75;1.90;;;6.00;99.90;;;;;;7599925;19;20015;-72
2022/11/09 03:06:02;;;;;;;2.95;2.10;;;6.10;99.90;;;;;;7597924;19;20097;-73
2022/11/09 03:08:35;;;;;;;3.67;2.00;;;6.10;99.90;;;;;;7592501;19;20021;-74
2022/11/09 03:11:08;;;;;;;3.30;2.28;;;6.10;99.90;;;;;;7572220;19;20099;-72
2022/11/09 03:13:42;;;;;;;7.32;2.17;;;5.90;99.90;;;;;;7572872;19;20017;-72
2022/11/09 03:16:15;;;;;;;3.30;1.70;;;6.00;99.90;;;;;;7555992;19;20015;-73
2022/11/09 03:18:47;;;;;;;5.45;1.67;;;6.10;99.90;;;;;;7584132;19;20035;-72
2022/11/09 03:21:20;;;;;;;2.90;2.10;;;6.20;99.90;;;;;;7599327;19;20543;-73
2022/11/09 03:23:55;;;;;;;2.75;1.83;;;6.20;99.90;;;;;;7556829;19;20010;-73
2022/11/09 03:26:28;;;;;;;3.22;1.60;;;6.00;99.90;;;;;;7566751;19;20014;-73
2022/11/09 03:29:00;;;;;;;2.13;1.75;;;5.90;99.90;;;;;;7576997;19;20018;-72
2022/11/09 03:31:33;;;;;;;3.08;1.90;;;6.00;99.90;;;;;;7601274;19;20018;-72
2022/11/09 03:34:09;;;;;;;3.88;2.00;;;6.10;99.90;;;;;;7596561;19;20043;-73
2022/11/09 03:36:43;;;;;;;2.75;1.55;;;6.10;99.90;;;;;;7588870;19;20022;-73
2022/11/09 03:39:16;;;;;;;3.42;2.10;;;6.00;99.90;;;;;;7566506;19;20034;-72
2022/11/09 03:41:48;;;;;;;2.45;1.80;;;6.00;99.90;;;;;;7562230;19;20014;-72
2022/11/09 03:44:20;;;;;;;2.80;1.98;;;6.10;99.90;;;;;;7596210;19;21209;-72
2022/11/09 03:46:52;;;;;;;2.08;1.60;;;5.90;99.90;;;;;;7581463;19;20022;-72
2022/11/09 03:49:24;;;;;;;4.32;1.80;;;6.00;99.90;;;;;;7580609;19;20014;-72
2022/11/09 03:51:56;;;;;;;3.22;2.00;;;5.90;99.90;;;;;;7596612;19;20024;-72
2022/11/09 03:54:28;;;;;;;2.90;1.90;;;5.70;99.90;;;;;;7592197;19;20490;-73
2022/11/09 03:57:00;;;;;;;2.42;1.40;;;5.70;99.90;;;;;;7605205;19;20014;-72
2022/11/09 03:59:33;;;;;;;3.75;1.77;;;5.80;99.90;;;;;;7605227;19;20010;-73
2022/11/09 04:02:05;;;;;;;2.40;1.60;;;5.80;99.90;;;;;;7583118;19;20028;-73
2022/11/09 04:04:37;;;;;;;2.33;1.52;;;5.80;99.90;;;;;;7589851;19;20019;-70
2022/11/09 04:07:10;;;;;;;3.00;1.60;;;5.90;99.90;;;;;;7599056;19;20771;-72
2022/11/09 04:09:42;;;;;;;2.92;1.92;;;6.00;99.90;;;;;;7584932;19;20021;-73
2022/11/09 04:12:14;;;;;;;4.38;1.55;;;6.00;99.90;;;;;;7604134;19;20052;-74
2022/11/09 04:14:46;;;;;;;3.00;1.50;;;5.90;99.90;;;;;;7613739;19;20017;-73
2022/11/09 04:17:18;;;;;;;2.25;1.65;;;5.80;99.90;;;;;;7588513;19;20002;-73
2022/11/09 04:19:50;;;;;;;2.83;1.85;;;5.80;99.90;;;;;;7603290;19;20022;-73
2022/11/09 04:22:22;;;;;;;2.28;1.25;;;5.80;99.90;;;;;;7595846;19;20028;-73
2022/11/09 04:24:54;;;;;;;5.95;1.90;;;5.80;99.90;;;;;;7584066;19;20010;-73
2022/11/09 04:27:28;;;;;;;2.78;1.70;;;5.90;99.90;;;;;;7581810;19;20014;-73
2022/11/09 04:30:00;;;;;;;3.03;1.80;;;6.00;99.90;;;;;;7599281;19;20048;-72
2022/11/09 04:32:32;;;;;;;3.97;1.98;;;5.90;99.90;;;;;;7575163;19;20019;-73
2022/11/09 04:35:05;;;;;;;2.75;1.70;;;5.90;99.90;;;;;;7582651;19;20121;-73
2022/11/09 04:37:37;;;;;;;2.70;1.67;;;5.90;99.90;;;;;;7593185;19;21574;-73
2022/11/09 04:40:10;;;;;;;3.00;1.65;;;6.00;99.90;;;;;;7600720;19;20029;-72
2022/11/09 04:42:42;;;;;;;2.20;1.40;;;6.00;99.90;;;;;;7600021;19;20419;-73
2022/11/09 04:45:14;;;;;;;2.80;1.70;;;6.00;99.90;;;;;;7603317;19;20022;-73
2022/11/09 04:47:47;;;;;;;2.30;1.48;;;6.00;99.90;;;;;;7596215;19;20018;-73
2022/11/09 04:50:19;;;;;;;2.03;1.60;;;6.10;99.90;;;;;;7573361;19;21369;-72
2022/11/09 04:53:12;;;;;;;3.97;2.17;;;6.10;99.90;;;;;;7592951;19;20010;-73
2022/11/09 04:55:45;;;;;;;2.00;1.60;;;6.00;99.90;;;;;;7597297;19;20023;-73
2022/11/09 04:58:17;;;;;;;3.67;2.05;;;5.90;99.90;;;;;;7596052;19;20371;-73
2022/11/09 05:01:09;;;;;;;3.90;1.73;;;5.90;99.90;;;;;;7581496;19;20010;-72
2022/11/09 05:03:42;;;;;;;4.53;1.75;;;5.80;99.90;;;;;;7592029;19;20018;-73
2022/11/09 05:06:32;;;;;;;3.08;1.70;;;5.80;99.90;;;;;;7599342;19;20021;-73
2022/11/09 05:09:06;;;;;;;5.93;1.67;;;5.70;99.90;;;;;;7575433;19;20126;-73
2022/11/09 05:11:38;;;;;;;3.22;1.88;;;5.70;99.90;;;;;;7585458;19;21189;-73
2022/11/09 05:14:10;;;;;;;5.15;1.77;;;5.60;99.90;;;;;;7594367;19;20020;-73
2022/11/09 05:16:42;;;;;;;4.93;1.88;;;5.70;99.90;;;;;;7600800;19;20010;-73
2022/11/09 05:19:15;;;;;;;3.00;1.77;;;5.70;99.90;;;;;;7577811;19;20019;-72
2022/11/09 05:21:47;;;;;;;3.63;1.95;;;5.60;99.90;;;;;;7589943;19;20006;-73
2022/11/09 05:24:19;;;;;;;3.28;1.83;;;5.60;99.90;;;;;;7587499;19;20021;-73
2022/11/09 05:26:52;;;;;;;3.92;1.90;;;5.60;99.90;;;;;;7584632;19;20020;-73
2022/11/09 05:29:24;;;;;;;4.63;2.30;;;5.60;99.90;;;;;;7596471;19;20205;-73
2022/11/09 05:31:56;;;;;;;4.97;1.98;;;5.60;99.90;;;;;;7569368;19;20046;-73
2022/11/09 05:34:28;;;;;;;6.13;2.05;;;5.60;99.90;;;;;;7583310;19;20029;-73
2022/11/09 05:37:00;;;;;;;2.95;2.03;;;5.60;99.90;;;;;;7576100;19;20026;-73
2022/11/09 05:39:34;;;;;;;4.10;1.73;;;5.50;99.90;;;;;;7586423;19;20019;-73
2022/11/09 05:42:09;;;;;;;2.60;1.73;;;5.60;99.90;;;;;;7572693;19;20018;-72
2022/11/09 05:44:41;;;;;;;3.33;2.10;;;5.60;99.90;;;;;;7602319;19;20038;-73
2022/11/09 05:47:13;;;;;;;7.72;2.17;;;5.50;99.90;;;;;;7575670;19;20010;-74
2022/11/09 05:49:45;;;;;;;2.65;2.10;;;5.50;99.90;;;;;;7584143;19;20400;-72
2022/11/09 05:52:17;;;;;;;4.32;2.08;;;5.40;99.90;;;;;;7582545;19;20190;-72
2022/11/09 05:54:49;;;;;;;4.15;1.98;;;5.40;99.90;;;;;;7590427;19;20018;-72
2022/11/09 05:57:22;;;;;;;3.88;2.10;;;5.30;99.90;;;;;;7591916;19;20014;-73
2022/11/09 05:59:54;;;;;;;2.97;2.05;;;5.40;99.90;;;;;;7568286;19;20018;-72
2022/11/09 06:02:30;;;;;;;3.38;2.05;;;5.40;99.90;;;;;;7571391;19;20019;-73
2022/11/09 06:05:02;;;;;;;5.20;2.38;;;5.40;99.90;;;;;;7571936;19;20459;-73
2022/11/09 06:07:35;;;;;;;2.85;1.77;;;5.40;99.90;;;;;;7564166;19;20953;-74
2022/11/09 06:10:08;;;;;;;6.20;2.47;;;5.40;99.90;;;;;;7564780;19;20026;-73
2022/11/09 06:12:40;;;;;;;4.75;2.03;;;5.40;99.90;;;;;;7558945;19;20437;-74
2022/11/09 06:15:12;;;;;;;2.95;1.73;;;5.40;99.90;;;;;;7567058;19;20022;-73
2022/11/09 06:17:53;;;;;;;4.03;2.42;;;5.40;99.90;;;;;;7592472;19;20014;-74
2022/11/09 06:20:26;;;;;;;2.72;1.90;;;5.40;99.90;;;;;;7578519;19;20025;-74
2022/11/09 06:23:01;;;;;;;2.72;2.10;;;5.40;99.90;;;;;;7567732;19;20018;-74
2022/11/09 06:25:35;;;;;;;4.05;2.15;;;5.40;99.90;;;;;;7583881;19;20014;-74
2022/11/09 06:28:07;;;;;;;3.33;2.03;;;5.40;99.90;;;;;;7586945;19;20581;-74
2022/11/09 06:30:39;;;;;;;3.85;2.00;;;5.40;99.90;;;;;;7595955;19;20020;-75
2022/11/09 06:33:11;;;;;;;3.50;2.10;;;5.50;99.90;;;;;;7580552;19;20017;-75
2022/11/09 06:35:46;;;;;;;6.53;2.13;;;5.50;99.90;;;;;;7570495;19;20009;-76
2022/11/09 06:38:26;;;;;;;3.50;2.20;;;5.50;99.90;;;;;;7606799;19;20021;-75
2022/11/09 06:40:59;;;;;;;4.63;2.40;;;5.60;99.90;;;;;;7611485;19;20655;-74
2022/11/09 06:43:31;;;;;;;3.40;2.30;;;5.50;99.90;;;;;;7616171;19;20668;-75
2022/11/09 06:46:04;;;;;;;6.20;2.42;;;5.70;99.90;;;;;;7609823;19;20017;-75
2022/11/09 06:48:38;;;;;;;3.10;2.17;;;5.90;99.90;;;;;;7604315;19;20044;-75
2022/11/09 06:51:15;;;;;;;3.40;2.13;;;6.20;99.90;;;;;;7606452;19;20283;-75
2022/11/09 06:53:47;;;;;;;3.97;2.08;;;6.50;99.90;;;;;;7620132;19;20032;-74
2022/11/09 06:56:19;;;;;;;3.70;2.00;;;6.60;99.90;;;;;;7621357;19;23115;-75
2022/11/09 06:58:51;;;;;;;8.40;2.60;;;6.70;99.90;;;;;;7623467;19;20018;-75
2022/11/09 07:01:27;;;;;;;4.47;2.83;;;6.80;99.90;;;;;;7619963;19;20972;-75
2022/11/09 07:04:00;;;;;;;10.00;3.83;;;6.80;99.90;;;;;;7622503;19;20019;-75
2022/11/09 07:06:32;;;;;;;9.90;4.13;;;6.90;99.90;;;;;;7622251;19;20044;-75
2022/11/09 07:09:04;;;;;;;6.32;3.42;;;7.00;99.90;;;;;;7612373;19;20018;-75
2022/11/09 07:11:36;;;;;;;10.40;3.25;;;7.20;99.90;;;;;;7619796;19;20096;-75
2022/11/09 07:14:08;;;;;;;11.95;3.60;;;7.30;99.90;;;;;;7621561;19;20044;-75
2022/11/09 07:16:40;;;;;;;7.57;3.25;;;7.40;99.90;;;;;;7620930;19;20011;-75
2022/11/09 07:19:12;;;;;;;7.03;2.63;;;7.40;99.90;;;;;;7616846;19;20022;-75
2022/11/09 07:21:45;;;;;;;9.00;3.17;;;7.60;99.90;;;;;;7622759;19;20034;-75
2022/11/09 07:24:19;;;;;;;4.40;2.50;;;7.70;99.90;;;;;;7615594;19;22198;-75
2022/11/09 07:26:51;;;;;;;11.07;3.13;;;7.80;99.90;;;;;;7612072;19;21067;-75
2022/11/09 07:29:23;;;;;;;5.53;2.63;;;7.90;99.90;;;;;;7615924;19;20130;-74
2022/11/09 07:31:58;;;;;;;8.85;2.65;;;8.00;99.90;;;;;;7612047;19;20102;-75
2022/11/09 07:34:30;;;;;;;8.52;3.22;;;8.00;99.90;;;;;;7608747;19;20044;-75
2022/11/09 07:37:05;;;;;;;3.47;2.53;;;8.00;99.90;;;;;;7609956;19;20621;-75
2022/11/09 07:39:38;;;;;;;6.38;2.40;;;8.00;99.90;;;;;;7614874;19;20060;-75
2022/11/09 07:42:11;;;;;;;5.25;2.60;;;8.10;99.90;;;;;;7616207;19;20082;-76
2022/11/09 07:44:46;;;;;;;4.50;2.92;;;8.30;99.90;;;;;;7610957;19;20018;-75
2022/11/09 07:47:19;;;;;;;6.18;2.47;;;8.30;99.90;;;;;;7609796;19;20022;-75
2022/11/09 07:49:55;;;;;;;8.25;2.95;;;8.40;99.90;;;;;;7616874;19;20017;-75
2022/11/09 07:52:27;;;;;;;6.10;2.55;;;8.40;99.90;;;;;;7614707;19;20451;-75
2022/11/09 07:54:59;;;;;;;4.07;2.60;;;8.50;99.90;;;;;;7610374;19;20101;-74
2022/11/09 07:57:31;;;;;;;4.15;2.05;;;8.50;99.90;;;;;;7615495;19;20027;-74
2022/11/09 08:00:03;;;;;;;11.32;3.42;;;8.50;99.90;;;;;;7611795;19;21436;-74
2022/11/09 08:02:48;;;;;;;4.40;2.47;;;8.50;99.90;;;;;;7615193;19;20018;-75
2022/11/09 08:05:23;;;;;;;5.78;3.17;;;8.50;99.90;;;;;;7610932;19;20010;-75
2022/11/09 08:07:57;;;;;;;11.93;3.35;;;8.60;99.90;;;;;;7611410;19;20029;-75
2022/11/09 08:10:31;;;;;;;7.60;3.05;;;8.70;99.90;;;;;;7606244;19;20018;-75
2022/11/09 08:13:05;;;;;;;;;;;8.70;99.90;;;;;;7613882;19;20019;-74
2022/11/09 08:15:39;;;;;;;8.85;3.08;;;8.80;99.90;;;;;;7614444;19;20022;-75
2022/11/09 08:18:17;;;;;;;9.20;2.80;;;8.80;99.90;;;;;;7612765;19;21034;-74
2022/11/09 08:20:50;;;;;;;6.10;2.70;;;9.00;99.90;;;;;;7600042;19;20014;-75
2022/11/09 08:23:23;;;;;;;9.80;3.22;;;9.00;99.90;;;;;;7613732;19;20030;-75
2022/11/09 08:26:03;;;;;;;9.73;2.67;;;9.20;99.90;;;;;;7607337;19;20006;-75
2022/11/09 08:28:35;;;;;;;7.97;3.22;;;9.30;99.90;;;;;;7619561;19;20018;-74
2022/11/09 08:31:08;;;;;;;10.27;4.07;;;9.50;99.90;;;;;;7613543;19;20022;-74
2022/11/09 08:33:41;;;;;;;12.25;4.68;;;9.60;99.90;;;;;;7619556;19;20026;-75
2022/11/09 08:36:16;;;;;;;13.37;5.13;;;9.80;99.90;;;;;;7609405;19;21263;-75
2022/11/09 08:38:48;;;;;;;10.35;4.45;;;9.90;98.90;;;;;;7614697;19;20047;-74
2022/11/09 08:41:23;;;;;;;12.10;4.18;;;10.00;98.00;;;;;;7613593;19;20015;-75
2022/11/09 08:43:56;;;;;;;13.60;4.10;;;10.10;96.80;;;;;;7618560;19;20667;-74
2022/11/09 08:46:28;;;;;;;11.15;4.50;;;10.30;97.00;;;;;;7615756;19;20018;-74
2022/11/09 08:49:18;;;;;;;9.48;4.07;;;10.50;97.10;;;;;;7616812;19;20017;-75
2022/11/09 08:51:50;;;;;;;8.30;3.40;;;10.70;95.60;;;;;;7623428;19;20420;-75
2022/11/09 08:54:25;;;;;;;7.88;2.95;;;10.90;94.90;;;;;;7616014;19;20018;-75
2022/11/09 08:57:02;;;;;;;7.43;3.10;;;11.20;93.20;;;;;;7619194;19;20017;-75
2022/11/09 08:59:36;;;;;;;8.57;2.90;;;11.40;92.40;;;;;;7618532;19;20399;-76
2022/11/09 09:02:12;;;;;;;8.90;3.17;;;11.50;91.00;;;;;;7617397;19;20082;-75
2022/11/09 09:04:45;;;;;;;6.60;2.88;;;11.70;90.20;;;;;;7613148;19;20022;-75
2022/11/09 09:07:20;;;;;;;3.92;2.00;;;11.80;90.30;;;;;;7618102;19;20023;-76
2022/11/09 09:09:53;;;;;;;3.65;2.03;;;11.80;89.10;;;;;;7620233;19;20018;-75
2022/11/09 09:12:25;;;;;;;4.15;1.70;;;11.90;89.10;;;;;;7615591;19;20018;-75
2022/11/09 09:14:57;;;;;;;3.85;2.00;;;12.00;87.60;;;;;;7615241;19;20015;-76
2022/11/09 09:17:34;;;;;;;4.38;1.80;;;12.10;87.10;;;;;;7618781;19;20094;-75
2022/11/09 09:20:07;;;;;;;4.88;1.70;;;12.20;85.60;;;;;;7616684;19;20026;-74
2022/11/09 09:22:42;;;;;;;6.75;1.90;;;12.20;87.00;;;;;;7621794;19;20040;-75
2022/11/09 09:25:20;;;;;;;5.00;1.60;;;12.20;87.30;;;;;;7612580;19;20022;-76
2022/11/09 09:27:56;;;;;;;3.05;1.67;;;12.30;86.00;;;;;;7618932;19;20031;-75
2022/11/09 09:30:31;;;;;;;3.58;1.90;;;12.40;86.60;;;;;;7620832;19;20014;-74
2022/11/09 09:33:03;;;;;;;2.65;1.40;;;12.50;86.00;;;;;;7629698;19;21054;-75
2022/11/09 09:35:44;;;;;;;3.42;1.73;;;12.50;86.10;;;;;;7624864;19;20087;-75
2022/11/09 09:38:19;;;;;;;2.88;1.77;;;12.60;86.40;;;;;;7624904;19;20018;-76
2022/11/09 09:41:00;;;;;;;4.90;1.90;;;12.70;86.20;;;;;;7623625;19;20081;-76
2022/11/09 09:43:40;;;;;;;4.90;2.10;;;12.70;85.90;;;;;;7619466;19;20582;-76
2022/11/09 09:46:23;;;;;;;7.18;2.42;;;12.80;86.60;;;;;;7621604;19;20014;-76
2022/11/09 09:49:10;;;;;;;4.70;2.03;;;12.90;86.90;;;;;;7617551;19;20011;-75
2022/11/09 09:52:14;;;;;;;3.80;1.95;;;13.00;86.60;;;;;;7618633;19;20018;-75
2022/11/09 09:54:56;;;;;;;6.32;2.08;;;13.10;85.70;;;;;;7614076;19;20779;-76
2022/11/09 09:57:31;;;;;;;2.78;1.50;;;13.10;86.40;;;;;;7619829;19;20010;-76
2022/11/09 10:00:19;;;;;;;2.22;1.55;;;13.20;85.30;;;;;;7616394;19;20029;-73
2022/11/09 10:02:52;;;;;;;4.65;1.52;;;13.20;86.40;;;;;;7621587;19;20022;-76
2022/11/09 10:05:36;;;;;;;2.85;1.60;;;13.30;85.20;;;;;;7615495;19;20101;-76
2022/11/09 10:08:31;;;;;;;4.03;1.67;;;13.30;84.80;;;;;;7616864;19;20014;-73
2022/11/09 10:11:12;;;;;;;3.92;1.80;;;13.50;82.00;;;;;;7618365;19;20650;-75
2022/11/09 10:14:01;;;;;;;4.40;1.63;;;13.60;82.30;;;;;;7614313;19;21058;-74
2022/11/09 10:16:43;;;;;;;6.80;1.90;;;13.70;82.20;;;;;;7617544;19;20038;-75
2022/11/09 10:19:18;;;;;;;3.05;1.70;;;13.90;82.10;;;;;;7616266;19;20014;-73
2022/11/09 10:22:21;;;;;;;4.00;1.70;;;14.00;83.40;;;;;;7618210;19;20569;-74
2022/11/09 10:25:07;;;;;;;3.60;2.00;;;14.10;84.50;;;;;;7615430;19;20018;-74
2022/11/09 10:28:03;;;;;;;3.35;1.92;;;14.30;81.40;;;;;;7622775;19;20018;-75
2022/11/09 10:30:40;;;;;;;3.47;1.60;;;14.30;81.30;;;;;;7626857;19;20014;-75
2022/11/09 10:33:14;;;;;;;4.57;1.70;;;14.40;82.60;;;;;;7621645;19;21449;-75
2022/11/09 10:36:22;;;;;;;3.60;1.85;;;14.30;84.10;;;;;;7620458;19;20029;-74
2022/11/09 10:39:00;;;;;;;3.28;2.30;;;14.30;85.10;;;;;;7620518;19;20105;-75
2022/11/09 10:41:51;;;;;;;4.55;1.70;;;14.30;85.30;;;;;;7624594;19;20010;-74
2022/11/09 10:44:42;;;;;;;4.90;2.03;;;14.30;83.20;;;;;;7624323;19;20606;-76
2022/11/09 10:47:49;;;;;;;3.38;1.67;;;14.40;85.50;;;;;;7621665;19;21058;-75
2022/11/09 10:50:52;;;;;;;2.13;1.55;;;14.40;85.80;;;;;;7624396;19;20014;-75
2022/11/09 10:53:43;;;;;;;3.92;1.88;;;14.50;86.30;;;;;;7621075;19;20094;-74
2022/11/09 10:56:59;;;;;;;2.58;1.60;;;14.60;87.50;;;;;;7622881;19;20022;-75
2022/11/09 10:59:57;;;;;;;2.60;1.55;;;14.70;85.60;;;;;;7621953;19;20021;-76
2022/11/09 11:02:49;;;;;;;4.47;1.45;;;14.80;83.40;;;;;;7626002;19;20029;-75
2022/11/09 11:05:40;;;;;;;3.65;1.70;;;14.90;84.80;;;;;;7612364;19;20478;-74
2022/11/09 11:08:39;;;;;;;2.45;1.52;;;15.10;83.50;;;;;;7614868;19;20026;-75
2022/11/09 11:11:35;;;;;;;8.52;1.50;;;15.30;81.70;;;;;;7620170;19;20015;-75
2022/11/09 11:14:40;;;;;;;3.15;1.60;;;15.30;80.80;;;;;;7615599;19;20018;-75
2022/11/09 11:17:36;;;;;;;3.53;1.92;;;15.50;78.90;;;;;;7614136;19;20466;-75
2022/11/09 11:20:34;;;;;;;2.70;1.38;;;15.80;78.60;;;;;;7614254;19;20014;-75
2022/11/09 11:23:25;;;;;;;3.58;1.60;;;16.20;76.40;;;;;;7621646;19;20022;-75
2022/11/09 11:26:25;;;;;;;2.78;1.80;;;16.70;75.40;;;;;;7608181;19;20019;-76
2022/11/09 11:29:25;;;;;;;2.83;1.63;;;19.80;66.20;;;;;;7617511;19;20010;-75
2022/11/09 11:32:18;;;;;;;2.92;1.40;;;22.60;57.90;;;;;;7616121;19;21013;-75
2022/11/09 11:35:15;;;;;;;4.70;1.50;;;22.70;59.10;;;;;;7614678;19;20011;-76
2022/11/09 11:38:50;;;;;;;2.10;1.80;;;21.90;56.50;;;;;;7616502;19;20019;-75
2022/11/09 11:41:47;;;;;;;;;;;24.20;56.60;;;;;;7615770;19;20022;-74
2022/11/09 11:44:50;;;;;;;3.03;1.98;;;26.70;50.70;;;;;;7619386;19;19923;-75
2022/11/09 11:48:08;;;;;;;1.40;1.27;;;26.30;47.40;;;;;;7617731;19;20066;-75
2022/11/09 11:51:08;;;;;;;4.07;1.40;;;26.20;47.10;;;;;;7620815;19;20018;-75
2022/11/09 11:54:20;;;;;;;4.75;1.77;;;26.10;50.30;;;;;;7620531;19;20018;-74
2022/11/09 11:57:32;;;;;;;5.18;1.50;;;25.10;48.90;;;;;;7617873;19;20010;-74
2022/11/09 12:00:23;;;;;;;2.55;1.45;;;23.50;52.00;;;;;;7609038;19;20014;-74
2022/11/09 12:03:38;;;;;;;1.75;1.13;;;21.90;52.70;;;;;;7610339;19;20022;-75
2022/11/09 12:06:34;;;;;;;2.92;1.55;;;20.90;56.90;;;;;;7614279;19;20081;-75
2022/11/09 12:10:09;;;;;;;5.63;1.40;;;20.50;55.50;;;;;;7610113;19;20457;-74
2022/11/09 12:13:33;;;;;;;3.38;1.40;;;19.60;57.70;;;;;;7612824;19;20029;-75
2022/11/09 12:16:34;;;;;;;1.77;1.40;;;19.00;60.40;;;;;;7614139;19;20014;-75
2022/11/09 12:19:48;;;;;;;3.75;1.60;;;19.10;61.50;;;;;;7471767;19;2776223;-74
2022/11/09 12:23:04;;;;;;;2.78;1.65;;;18.80;61.30;;;;;;7613761;19;20007;-74
2022/11/09 12:26:28;;;;;;;2.20;1.35;;;19.20;60.60;;;;;;7602940;19;20018;-73
2022/11/09 12:29:22;;;;;;;2.28;1.45;;;18.80;59.70;;;;;;7587076;19;20045;-75
2022/11/09 12:32:39;;;;;;;2.17;1.23;;;18.50;60.90;;;;;;7593341;19;21016;-74
2022/11/09 12:35:45;;;;;;;4.05;1.10;;;18.30;61.80;;;;;;7574244;19;20019;-74
2022/11/09 12:39:03;;;;;;;2.95;1.63;;;18.20;62.10;;;;;;7612746;19;20057;-75
2022/11/09 12:42:00;;;;;;;2.65;1.40;;;19.00;61.60;;;;;;7593799;19;20010;-75
2022/11/09 12:45:12;;;;;;;3.20;1.33;;;19.20;61.50;;;;;;7587625;19;20022;-74
2022/11/09 12:48:27;;;;;;;2.33;1.50;;;18.90;61.50;;;;;;7570440;19;20676;-74
2022/11/09 12:51:19;;;;;;;3.95;2.00;;;18.50;63.90;;;;;;7577730;19;20139;-74
2022/11/09 12:54:10;;;;;;;3.97;2.00;;;18.40;63.40;;;;;;7564773;19;20619;-74
2022/11/09 12:57:08;;;;;;;6.63;2.03;;;19.00;63.10;;;;;;7550448;19;20027;-74
2022/11/09 12:59:59;;;;;;;6.53;2.05;;;18.80;61.20;;;;;;7572118;19;20040;-74
2022/11/09 13:02:58;;;;;;;1.83;1.55;;;19.50;61.90;;;;;;7591542;19;20031;-74
2022/11/09 13:06:08;;;;;;;2.63;1.40;;;19.70;60.90;;;;;;7600341;19;20010;-74
2022/11/09 13:09:05;;;;;;;2.92;1.67;;;19.50;62.00;;;;;;7589851;19;20007;-74
2022/11/09 13:11:55;;;;;;;2.05;1.13;;;19.20;62.00;;;;;;7592461;19;20030;-74
2022/11/09 13:14:47;;;;;;;2.55;1.23;;;19.00;63.00;;;;;;7585586;19;20017;-74
2022/11/09 13:17:37;;;;;;;2.28;1.10;;;18.60;63.70;;;;;;7593548;19;20014;-74
2022/11/09 13:20:34;;;;;;;3.28;1.70;;;18.50;64.80;;;;;;7596711;19;20018;-74
2022/11/09 13:23:45;;;;;;;5.47;1.65;;;18.30;64.00;;;;;;7577196;19;21085;-74
2022/11/09 13:26:56;;;;;;;3.45;1.50;;;18.20;65.60;;;;;;7593289;19;20010;-74
2022/11/09 13:29:48;;;;;;;8.00;1.80;;;18.10;65.90;;;;;;7588622;19;20018;-74
2022/11/09 13:33:05;;;;;;;3.50;1.50;;;18.10;66.40;;;;;;7594390;19;20014;-74
2022/11/09 13:36:17;;;;;;;4.63;1.65;;;18.00;64.90;;;;;;7583875;19;20928;-74
2022/11/09 13:39:29;;;;;;;2.53;1.35;;;18.00;65.40;;;;;;7587179;19;20020;-73
2022/11/09 13:42:33;;;;;;;3.80;1.60;;;18.10;67.10;;;;;;7605397;19;20493;-74
2022/11/09 13:45:38;;;;;;;3.28;1.90;;;18.30;65.80;;;;;;7569280;19;20037;-75
2022/11/09 13:48:31;;;;;;;4.82;1.70;;;19.30;65.70;;;;;;7565300;19;20011;-74
2022/11/09 13:51:34;;;;;;;2.92;1.65;;;21.20;60.40;;;;;;7567121;19;20017;-74
2022/11/09 13:54:42;;;;;;;4.32;1.40;;;20.60;59.80;;;;;;7572302;19;20010;-74
2022/11/09 13:57:36;;;;;;;3.50;1.50;;;19.80;61.40;;;;;;7582500;19;20027;-74
2022/11/09 14:00:27;;;;;;;3.67;1.60;;;19.20;62.00;;;;;;7567433;19;21239;-74
2022/11/09 14:03:24;;;;;;;6.32;1.83;;;19.10;64.90;;;;;;7537053;19;20018;-74